createdAt,value
2023-02-28T00:00:19.841Z,-1.13
2023-02-28T00:01:19.752Z,-1.20
2023-02-28T00:02:19.686Z,-1.23
2023-02-28T00:03:19.617Z,-1.19
2023-02-28T00:04:19.738Z,-1.09
2023-02-28T00:05:19.400Z,-1.08
2023-02-28T00:06:19.305Z,-1.05
2023-02-28T00:07:19.414Z,-1.05
2023-02-28T00:08:19.127Z,-1.11
2023-02-28T00:09:19.031Z,-1.01
2023-02-28T00:10:18.944Z,-1.05
2023-02-28T00:11:18.851Z,-0.98
2023-02-28T00:12:18.794Z,-1.03
2023-02-28T00:13:18.672Z,-1.02
2023-02-28T00:14:18.583Z,-1.03
2023-02-28T00:15:18.491Z,-0.98
2023-02-28T00:16:18.453Z,-0.87
2023-02-28T00:17:18.315Z,-0.93
2023-02-28T00:18:18.518Z,-0.90
2023-02-28T00:19:18.132Z,-1.02
2023-02-28T00:20:18.046Z,-0.99
2023-02-28T00:21:17.954Z,-1.03
2023-02-28T00:22:17.864Z,-1.09
2023-02-28T00:23:17.770Z,-1.16
2023-02-28T00:24:17.683Z,-1.16
2023-02-28T00:25:17.592Z,-1.11
2023-02-28T00:26:18.397Z,-1.17
2023-02-28T00:27:17.418Z,-1.17
2023-02-28T00:28:17.337Z,-1.19
2023-02-28T00:29:17.228Z,-1.26
2023-02-28T00:30:17.488Z,-1.20
2023-02-28T00:31:17.051Z,-1.27
2023-02-28T00:32:17.002Z,-1.29
2023-02-28T00:33:16.869Z,-1.23
2023-02-28T00:34:16.786Z,-1.26
2023-02-28T00:35:16.692Z,-1.27
2023-02-28T00:36:16.594Z,-1.29
2023-02-28T00:37:16.509Z,-1.23
2023-02-28T00:38:16.461Z,-1.20
2023-02-28T00:39:16.323Z,-1.29
2023-02-28T00:40:16.235Z,-1.22
2023-02-28T00:41:16.144Z,-1.29
2023-02-28T00:42:16.057Z,-1.29
2023-02-28T00:43:15.967Z,-1.26
2023-02-28T00:44:15.895Z,-1.34
2023-02-28T00:45:15.784Z,-1.30
2023-02-28T00:46:15.740Z,-1.32
2023-02-28T00:47:15.601Z,-1.29
2023-02-28T00:48:15.513Z,-1.23
2023-02-28T00:49:15.420Z,-1.37
2023-02-28T00:50:15.342Z,-1.24
2023-02-28T00:51:15.305Z,-1.32
2023-02-28T00:52:15.149Z,-1.38
2023-02-28T00:53:15.059Z,-1.44
2023-02-28T00:54:14.971Z,-1.45
2023-02-28T00:55:14.880Z,-1.48
2023-02-28T00:56:14.793Z,-1.52
2023-02-28T00:57:14.703Z,-1.47
2023-02-28T00:58:14.620Z,-1.55
2023-02-28T00:59:14.520Z,-1.63
2023-02-28T01:00:14.809Z,-1.71
2023-02-28T01:01:14.370Z,-1.71
2023-02-28T01:02:14.251Z,-1.70
2023-02-28T01:03:14.156Z,-1.68
2023-02-28T01:04:14.111Z,-1.68
2023-02-28T01:05:13.975Z,-1.77
2023-02-28T01:06:13.891Z,-1.84
2023-02-28T01:07:13.801Z,-1.83
2023-02-28T01:08:13.707Z,-1.78
2023-02-28T01:09:13.620Z,-1.83
2023-02-28T01:10:13.724Z,-1.89
2023-02-28T01:11:13.438Z,-1.78
2023-02-28T01:12:13.346Z,-1.81
2023-02-28T01:13:13.253Z,-1.88
2023-02-28T01:14:13.165Z,-1.89
2023-02-28T01:15:13.076Z,-1.89
2023-02-28T01:16:13.068Z,-1.91
2023-02-28T01:17:12.894Z,-1.95
2023-02-28T01:18:12.801Z,-1.84
2023-02-28T01:19:12.729Z,-1.92
2023-02-28T01:20:12.621Z,-1.91
2023-02-28T01:21:12.529Z,-1.98
2023-02-28T01:22:12.441Z,-1.89
2023-02-28T01:23:12.351Z,-1.94
2023-02-28T01:24:12.264Z,-1.77
2023-02-28T01:25:12.199Z,-1.84
2023-02-28T01:26:12.079Z,-1.97
2023-02-28T01:27:11.984Z,-1.95
2023-02-28T01:28:11.896Z,-1.95
2023-02-28T01:29:11.803Z,-1.98
2023-02-28T01:30:11.715Z,-2.10
2023-02-28T01:31:11.725Z,-2.01
2023-02-28T01:32:11.639Z,-2.01
2023-02-28T01:33:58.915Z,-2.04
2023-02-28T01:34:58.826Z,-2.17
2023-02-28T01:35:58.770Z,-2.06
2023-02-28T01:36:58.644Z,-2.02
2023-02-28T01:38:06.855Z,-2.16
2023-02-28T01:38:58.465Z,-2.10
2023-02-28T01:39:58.366Z,-2.15
2023-02-28T01:40:58.278Z,-2.19
2023-02-28T01:41:58.189Z,-2.27
2023-02-28T01:42:58.093Z,-2.20
2023-02-28T01:43:58.007Z,-2.28
2023-02-28T01:44:57.913Z,-2.19
2023-02-28T01:45:57.833Z,-2.30
2023-02-28T01:46:57.729Z,-2.16
2023-02-28T01:47:59.069Z,-2.15
2023-02-28T01:48:57.544Z,-2.25
2023-02-28T02:40:20.166Z,-2.34
2023-02-28T02:41:20.059Z,-2.42
2023-02-28T02:42:19.953Z,-2.41
2023-02-28T02:43:19.869Z,-2.49
2023-02-28T02:44:19.773Z,-2.36
2023-02-28T02:45:19.734Z,-2.47
2023-02-28T02:46:19.650Z,-2.47
2023-02-28T02:47:19.496Z,-2.57
2023-02-28T02:48:19.412Z,-2.52
2023-02-28T02:49:19.315Z,-2.49
2023-02-28T02:50:19.225Z,-2.38
2023-02-28T02:51:19.133Z,-2.41
2023-02-28T02:52:19.040Z,-2.41
2023-02-28T02:53:18.960Z,-2.32
2023-02-28T02:54:18.859Z,-2.34
2023-02-28T02:55:18.765Z,-2.32
2023-02-28T02:56:18.790Z,-2.34
2023-02-28T02:57:18.616Z,-2.36
2023-02-28T02:58:18.492Z,-2.38
2023-02-28T02:59:18.751Z,-2.47
2023-02-28T03:00:18.313Z,-2.49
2023-02-28T03:01:18.307Z,-2.35
2023-02-28T03:02:18.278Z,-2.53
2023-02-28T03:03:18.037Z,-2.53
2023-02-28T03:04:17.947Z,-2.47
2023-02-28T03:05:17.857Z,-2.46
2023-02-28T03:06:17.763Z,-2.50
2023-02-28T03:07:17.672Z,-2.53
2023-02-28T03:08:17.584Z,-2.47
2023-02-28T03:09:17.491Z,-2.45
2023-02-28T03:10:17.401Z,-2.45
2023-02-28T03:11:17.306Z,-2.42
2023-02-28T03:12:17.320Z,-2.53
2023-02-28T03:13:17.139Z,-2.56
2023-02-28T03:14:17.054Z,-2.59
2023-02-28T03:15:16.944Z,-2.56
2023-02-28T03:16:16.892Z,-2.49
2023-02-28T03:17:16.764Z,-2.59
2023-02-28T03:18:16.776Z,-2.68
2023-02-28T03:19:16.577Z,-2.62
2023-02-28T03:20:16.497Z,-2.53
2023-02-28T03:21:16.468Z,-2.67
2023-02-28T03:22:16.302Z,-2.62
2023-02-28T03:23:16.360Z,-2.54
2023-02-28T03:24:16.123Z,-2.68
2023-02-28T03:25:16.034Z,-2.68
2023-02-28T03:26:15.955Z,-2.65
2023-02-28T03:27:15.856Z,-2.70
2023-02-28T03:28:15.795Z,-2.71
2023-02-28T03:29:15.979Z,-2.68
2023-02-28T03:30:15.579Z,-2.64
2023-02-28T03:31:15.516Z,-2.75
2023-02-28T03:32:15.760Z,-2.67
2023-02-28T03:33:15.307Z,-2.65
2023-02-28T03:34:15.215Z,-2.67
2023-02-28T03:35:15.121Z,-2.67
2023-02-28T03:36:15.034Z,-2.57
2023-02-28T03:37:15.057Z,-2.64
2023-02-28T03:38:14.885Z,-2.71
2023-02-28T03:39:14.758Z,-2.65
2023-02-28T03:40:14.666Z,-2.85
2023-02-28T03:41:14.578Z,-2.75
2023-02-28T03:42:14.492Z,-2.68
2023-02-28T03:43:14.414Z,-2.77
2023-02-28T03:44:14.320Z,-2.67
2023-02-28T03:45:14.227Z,-2.57
2023-02-28T03:46:14.169Z,-2.62
2023-02-28T03:47:14.026Z,-2.65
2023-02-28T03:48:13.938Z,-2.62
2023-02-28T03:49:13.846Z,-2.64
2023-02-28T03:50:13.756Z,-2.64
2023-02-28T03:51:13.663Z,-2.78
2023-02-28T03:52:13.573Z,-2.85
2023-02-28T03:53:13.483Z,-2.78
2023-02-28T03:54:13.388Z,-2.74
2023-02-28T03:55:13.296Z,-2.75
2023-02-28T03:56:13.210Z,-2.85
2023-02-28T03:57:13.117Z,-2.89
2023-02-28T03:58:13.022Z,-2.70
2023-02-28T03:59:12.930Z,-2.71
2023-02-28T04:00:12.870Z,-2.86
2023-02-28T04:01:12.752Z,-2.91
2023-02-28T04:02:12.659Z,-2.91
2023-02-28T04:03:12.666Z,-2.89
2023-02-28T04:04:12.518Z,-2.85
2023-02-28T04:05:12.393Z,-2.80
2023-02-28T04:06:12.289Z,-2.86
2023-02-28T04:07:12.200Z,-2.86
2023-02-28T04:08:12.306Z,-2.86
2023-02-28T04:09:13.371Z,-2.86
2023-02-28T04:10:11.926Z,-2.85
2023-02-28T04:11:11.832Z,-2.96
2023-02-28T04:12:11.742Z,-3.03
2023-02-28T04:13:11.746Z,-3.06
2023-02-28T04:14:11.563Z,-3.07
2023-02-28T04:15:11.463Z,-2.98
2023-02-28T04:16:12.353Z,-2.88
2023-02-28T04:17:11.283Z,-3.06
2023-02-28T04:18:11.194Z,-3.04
2023-02-28T04:19:11.104Z,-2.99
2023-02-28T04:20:11.013Z,-3.04
2023-02-28T04:21:10.919Z,-3.07
2023-02-28T04:22:10.832Z,-3.20
2023-02-28T04:23:10.736Z,-3.16
2023-02-28T04:24:10.944Z,-3.16
2023-02-28T04:25:10.552Z,-3.04
2023-02-28T04:26:10.534Z,-3.01
2023-02-28T04:27:10.367Z,-2.99
2023-02-28T04:28:10.580Z,-2.99
2023-02-28T04:29:10.187Z,-2.99
2023-02-28T04:30:10.094Z,-3.04
2023-02-28T04:31:10.043Z,-3.04
2023-02-28T04:32:10.010Z,-3.04
2023-02-28T04:33:09.821Z,-3.17
2023-02-28T04:34:09.756Z,-3.14
2023-02-28T04:35:12.243Z,-2.99
2023-02-28T04:36:09.544Z,-3.04
2023-02-28T04:37:13.709Z,-2.98
2023-02-28T04:38:09.411Z,-3.10
2023-02-28T04:39:09.268Z,-3.03
2023-02-28T04:40:09.182Z,-3.03
2023-02-28T04:41:09.087Z,-2.88
2023-02-28T04:42:09.007Z,-2.92
2023-02-28T04:43:08.918Z,-3.07
2023-02-28T04:44:08.810Z,-3.04
2023-02-28T04:45:08.718Z,-3.14
2023-02-28T04:46:08.871Z,-3.01
2023-02-28T04:47:08.537Z,-2.91
2023-02-28T04:48:08.522Z,-2.93
2023-02-28T04:49:08.352Z,-3.07
2023-02-28T04:50:08.259Z,-3.07
2023-02-28T04:51:08.180Z,-3.13
2023-02-28T04:52:08.127Z,-3.14
2023-02-28T04:53:07.992Z,-3.07
2023-02-28T04:54:07.894Z,-3.10
2023-02-28T04:55:07.797Z,-3.16
2023-02-28T04:56:07.708Z,-3.13
2023-02-28T04:57:07.620Z,-3.13
2023-02-28T04:58:09.947Z,-3.14
2023-02-28T04:59:07.438Z,-3.17
2023-02-28T05:00:07.346Z,-3.13
2023-02-28T05:01:07.249Z,-3.11
2023-02-28T05:02:11.237Z,-3.17
2023-02-28T06:25:21.775Z,-2.92
2023-02-28T06:26:21.670Z,-2.93
2023-02-28T06:27:21.568Z,-2.91
2023-02-28T06:28:21.479Z,-2.93
2023-02-28T06:29:21.385Z,-2.86
2023-02-28T06:30:21.297Z,-2.85
2023-02-28T06:31:21.265Z,-2.85
2023-02-28T06:32:21.173Z,-2.95
2023-02-28T06:33:21.022Z,-2.98
2023-02-28T06:34:20.931Z,-2.92
2023-02-28T06:35:20.974Z,-2.92
2023-02-28T06:36:20.750Z,-3.04
2023-02-28T06:37:20.660Z,-2.96
2023-02-28T06:38:20.567Z,-2.86
2023-02-28T06:39:20.474Z,-2.83
2023-02-28T06:40:20.380Z,-2.95
2023-02-28T06:41:20.515Z,-2.89
2023-02-28T06:42:20.199Z,-2.92
2023-02-28T06:43:20.305Z,-2.86
2023-02-28T06:44:20.028Z,-2.82
2023-02-28T06:45:19.925Z,-2.91
2023-02-28T06:46:19.890Z,-2.88
2023-02-28T06:47:19.768Z,-2.78
2023-02-28T06:48:19.652Z,-2.96
2023-02-28T06:49:19.556Z,-2.95
2023-02-28T06:50:19.565Z,-2.86
2023-02-28T06:51:19.395Z,-2.88
2023-02-28T06:52:19.285Z,-2.91
2023-02-28T06:53:19.194Z,-2.88
2023-02-28T06:54:19.106Z,-2.91
2023-02-28T06:55:19.012Z,-2.89
2023-02-28T06:56:18.935Z,-2.77
2023-02-28T06:57:18.872Z,-2.80
2023-02-28T06:58:18.736Z,-2.74
2023-02-28T06:59:18.648Z,-2.71
2023-02-28T07:00:18.567Z,-2.68
2023-02-28T07:01:18.563Z,-2.70
2023-02-28T07:02:18.370Z,-2.78
2023-02-28T07:03:18.276Z,-2.67
2023-02-28T07:04:18.232Z,-2.77
2023-02-28T07:05:18.149Z,-2.62
2023-02-28T07:06:18.009Z,-2.64
2023-02-28T07:07:17.911Z,-2.67
2023-02-28T07:08:17.817Z,-2.59
2023-02-28T07:09:18.034Z,-2.67
2023-02-28T07:10:19.813Z,-2.64
2023-02-28T07:11:17.542Z,-2.57
2023-02-28T07:12:17.456Z,-2.56
2023-02-28T07:13:17.381Z,-2.56
2023-02-28T07:14:17.266Z,-2.42
2023-02-28T07:15:17.176Z,-2.38
2023-02-28T07:16:17.139Z,-2.38
2023-02-28T07:17:17.191Z,-2.38
2023-02-28T07:18:16.902Z,-2.38
2023-02-28T07:19:16.810Z,-2.42
2023-02-28T07:20:16.716Z,-2.35
2023-02-28T07:21:16.623Z,-2.49
2023-02-28T07:22:16.534Z,-2.39
2023-02-28T07:23:16.448Z,-2.34
2023-02-28T07:24:16.350Z,-2.34
2023-02-28T07:25:16.264Z,-2.22
2023-02-28T07:26:16.172Z,-2.15
2023-02-28T07:27:16.074Z,-2.16
2023-02-28T07:28:15.988Z,-2.07
2023-02-28T07:29:15.938Z,-2.13
2023-02-28T07:30:15.803Z,-2.04
2023-02-28T07:31:15.804Z,-2.01
2023-02-28T07:32:15.663Z,-2.07
2023-02-28T07:33:15.624Z,-2.02
2023-02-28T07:34:15.445Z,-1.95
2023-02-28T07:35:15.547Z,-2.02
2023-02-28T07:36:15.260Z,-2.04
2023-02-28T07:37:15.171Z,-1.83
2023-02-28T07:38:15.082Z,-1.83
2023-02-28T07:39:14.986Z,-1.81
2023-02-28T07:40:14.899Z,-1.74
2023-02-28T07:41:14.807Z,-1.71
2023-02-28T07:42:14.722Z,-1.65
2023-02-28T07:43:14.628Z,-1.56
2023-02-28T07:44:14.538Z,-1.50
2023-02-28T07:45:14.465Z,-1.47
2023-02-28T07:46:14.396Z,-1.41
2023-02-28T07:47:14.268Z,-1.34
2023-02-28T07:48:14.174Z,-1.32
2023-02-28T07:49:14.094Z,-1.26
2023-02-28T07:50:14.001Z,-1.06
2023-02-28T07:51:13.911Z,-0.77
2023-02-28T07:52:13.817Z,-0.54
2023-02-28T07:53:13.725Z,-0.53
2023-02-28T07:54:13.636Z,-0.50
2023-02-28T07:55:13.542Z,-0.47
2023-02-28T07:56:13.457Z,-0.37
2023-02-28T07:57:13.365Z,-0.26
2023-02-28T07:58:13.279Z,-0.30
2023-02-28T07:59:13.187Z,-0.15
2023-02-28T08:00:13.132Z,-0.17
2023-02-28T08:01:13.048Z,0.07
2023-02-28T08:02:12.937Z,0.13
2023-02-28T08:03:12.829Z,0.22
2023-02-28T08:04:12.735Z,0.32
2023-02-28T08:05:12.712Z,0.52
2023-02-28T08:06:12.558Z,0.56
2023-02-28T08:07:12.473Z,0.59
2023-02-28T08:08:12.378Z,0.69
2023-02-28T08:09:12.292Z,0.82
2023-02-28T08:10:12.204Z,0.79
2023-02-28T08:11:12.109Z,0.97
2023-02-28T08:12:12.022Z,0.93
2023-02-28T08:13:11.933Z,0.87
2023-02-28T08:14:11.843Z,1.00
2023-02-28T08:15:11.760Z,1.04
2023-02-28T08:16:11.798Z,0.94
2023-02-28T08:17:11.657Z,1.07
2023-02-28T08:18:11.500Z,1.16
2023-02-28T08:19:11.395Z,1.28
2023-02-28T08:20:11.330Z,1.26
2023-02-28T08:21:11.214Z,1.16
2023-02-28T08:23:13.607Z,1.41
2023-02-28T08:24:13.518Z,1.43
2023-02-28T08:25:13.429Z,1.32
2023-02-28T08:26:13.340Z,1.30
2023-02-28T08:27:13.248Z,1.46
2023-02-28T08:28:13.163Z,1.56
2023-02-28T08:29:13.070Z,1.61
2023-02-28T08:30:12.983Z,1.62
2023-02-28T08:31:12.960Z,1.58
2023-02-28T08:32:28.642Z,1.74
2023-02-28T08:33:12.834Z,1.64
2023-02-28T08:34:12.639Z,1.73
2023-02-28T08:35:12.538Z,1.74
2023-02-28T08:36:12.482Z,1.73
2023-02-28T08:37:12.375Z,1.76
2023-02-28T08:38:12.270Z,1.86
2023-02-28T08:39:12.180Z,1.92
2023-02-28T08:40:12.095Z,1.87
2023-02-28T08:41:12.006Z,2.02
2023-02-28T08:42:11.915Z,2.03
2023-02-28T08:43:11.825Z,2.03
2023-02-28T08:44:11.738Z,2.01
2023-02-28T08:45:11.648Z,1.98
2023-02-28T08:46:11.651Z,1.86
2023-02-28T08:47:11.473Z,2.09
2023-02-28T08:48:11.386Z,2.12
2023-02-28T08:49:11.316Z,2.24
2023-02-28T08:50:11.204Z,2.41
2023-02-28T08:51:11.118Z,2.35
2023-02-28T08:52:11.032Z,2.49
2023-02-28T08:53:10.938Z,2.57
2023-02-28T08:54:10.850Z,2.63
2023-02-28T08:55:10.764Z,2.67
2023-02-28T08:56:10.673Z,2.63
2023-02-28T08:57:10.584Z,2.73
2023-02-28T08:58:10.506Z,2.70
2023-02-28T08:59:10.405Z,2.85
2023-02-28T09:00:10.319Z,2.89
2023-02-28T09:01:10.278Z,3.01
2023-02-28T09:02:10.148Z,3.07
2023-02-28T09:03:10.055Z,3.04
2023-02-28T09:04:09.963Z,3.01
2023-02-28T09:05:09.897Z,3.13
2023-02-28T09:06:09.790Z,3.03
2023-02-28T09:07:09.703Z,2.99
2023-02-28T09:08:09.615Z,3.04
2023-02-28T09:09:09.523Z,2.91
2023-02-28T09:10:09.438Z,2.92
2023-02-28T09:11:09.376Z,3.04
2023-02-28T09:12:09.362Z,3.03
2023-02-28T09:13:09.177Z,3.13
2023-02-28T09:14:09.087Z,3.01
2023-02-28T09:15:09.000Z,2.92
2023-02-28T09:16:08.912Z,2.75
2023-02-28T09:17:08.831Z,2.88
2023-02-28T09:18:08.739Z,2.81
2023-02-28T09:19:08.646Z,2.81
2023-02-28T09:20:08.573Z,2.86
2023-02-28T09:21:08.501Z,3.01
2023-02-28T09:22:08.400Z,3.07
2023-02-28T09:23:08.297Z,3.01
2023-02-28T09:24:08.215Z,3.13
2023-02-28T09:25:08.129Z,3.14
2023-02-28T09:26:08.038Z,3.16
2023-02-28T09:27:08.441Z,3.10
2023-02-28T09:28:07.867Z,3.16
2023-02-28T09:29:07.778Z,3.29
2023-02-28T09:30:07.690Z,3.31
2023-02-28T09:31:07.631Z,3.39
2023-02-28T09:32:07.538Z,3.41
2023-02-28T09:33:07.428Z,3.47
2023-02-28T09:34:07.401Z,3.44
2023-02-28T09:35:07.257Z,3.34
2023-02-28T09:36:07.185Z,3.43
2023-02-28T09:37:07.099Z,3.56
2023-02-28T09:38:06.991Z,3.59
2023-02-28T09:39:06.952Z,3.56
2023-02-28T09:40:06.901Z,3.34
2023-02-28T09:41:06.728Z,3.21
2023-02-28T09:42:06.639Z,3.24
2023-02-28T09:43:06.558Z,3.22
2023-02-28T09:44:06.467Z,3.35
2023-02-28T09:45:06.388Z,3.29
2023-02-28T09:46:06.317Z,3.43
2023-02-28T09:47:06.223Z,3.39
2023-02-28T09:48:06.115Z,3.21
2023-02-28T09:49:06.025Z,3.01
2023-02-28T09:50:05.953Z,3.19
2023-02-28T09:51:05.855Z,3.37
2023-02-28T09:52:05.768Z,3.62
2023-02-28T09:53:05.698Z,3.53
2023-02-28T09:54:05.594Z,3.62
2023-02-28T09:55:06.373Z,3.34
2023-02-28T09:56:05.431Z,3.44
2023-02-28T09:57:05.330Z,3.32
2023-02-28T09:58:05.260Z,3.39
2023-02-28T09:59:05.191Z,3.41
2023-02-28T10:00:05.072Z,3.51
2023-02-28T10:01:05.080Z,3.61
2023-02-28T10:02:04.910Z,3.72
2023-02-28T10:03:04.805Z,3.66
2023-02-28T10:04:04.720Z,3.75
2023-02-28T10:05:04.723Z,3.79
2023-02-28T10:06:04.550Z,3.87
2023-02-28T10:07:04.489Z,3.89
2023-02-28T10:08:04.375Z,4.04
2023-02-28T10:09:04.318Z,4.55
2023-02-28T10:10:04.202Z,4.61
2023-02-28T10:11:04.117Z,4.62
2023-02-28T10:12:04.031Z,4.34
2023-02-28T10:13:03.941Z,4.07
2023-02-28T10:14:03.866Z,3.87
2023-02-28T10:15:03.768Z,3.80
2023-02-28T10:16:03.751Z,4.30
2023-02-28T10:17:03.594Z,4.68
2023-02-28T10:18:09.375Z,4.88
2023-02-28T10:19:03.420Z,5.17
2023-02-28T10:20:03.358Z,5.13
2023-02-28T10:21:03.251Z,5.28
2023-02-28T10:22:03.173Z,4.96
2023-02-28T10:23:03.083Z,4.74
2023-02-28T10:24:02.997Z,4.66
2023-02-28T10:25:03.498Z,4.65
2023-02-28T10:26:02.826Z,4.69
2023-02-28T10:27:02.745Z,4.62
2023-02-28T10:28:02.656Z,4.87
2023-02-28T10:29:02.568Z,4.62
2023-02-28T10:30:02.487Z,4.83
2023-02-28T10:31:02.455Z,4.87
2023-02-28T10:32:02.360Z,4.80
2023-02-28T10:33:02.296Z,4.84
2023-02-28T10:34:02.149Z,4.98
2023-02-28T10:35:02.066Z,4.88
2023-02-28T10:36:01.996Z,5.05
2023-02-28T10:37:01.891Z,5.36
2023-02-28T10:38:01.815Z,5.68
2023-02-28T10:39:01.721Z,5.93
2023-02-28T10:40:01.637Z,5.86
2023-02-28T10:41:01.583Z,5.74
2023-02-28T10:42:01.468Z,5.35
2023-02-28T10:43:01.390Z,5.35
2023-02-28T10:44:01.297Z,5.24
2023-02-28T10:45:01.210Z,5.13
2023-02-28T10:46:01.189Z,5.06
2023-02-28T10:47:01.048Z,5.14
2023-02-28T10:48:00.965Z,5.13
2023-02-28T10:49:00.874Z,5.26
2023-02-28T10:50:00.787Z,5.52
2023-02-28T10:51:00.699Z,5.75
2023-02-28T10:52:00.632Z,5.62
2023-02-28T10:53:00.783Z,5.65
2023-02-28T10:54:02.062Z,5.86
2023-02-28T10:55:00.370Z,6.32
2023-02-28T10:56:00.280Z,6.65
2023-02-28T10:57:00.224Z,6.55
2023-02-28T10:58:00.114Z,6.59
2023-02-28T10:59:00.037Z,6.42
2023-02-28T10:59:59.942Z,6.13
2023-02-28T11:00:59.959Z,6.11
2023-02-28T11:01:59.817Z,5.99
2023-02-28T11:02:59.720Z,6.06
2023-02-28T11:03:59.609Z,6.04
2023-02-28T11:04:59.575Z,5.89
2023-02-28T11:05:59.442Z,5.77
2023-02-28T11:06:59.388Z,5.92
2023-02-28T11:07:59.273Z,5.85
2023-02-28T11:08:59.192Z,5.72
2023-02-28T11:09:59.114Z,5.65
2023-02-28T11:10:59.025Z,5.90
2023-02-28T11:11:58.938Z,5.74
2023-02-28T11:13:00.864Z,5.83
2023-02-28T11:13:58.772Z,5.99
2023-02-28T11:14:58.688Z,5.97
2023-02-28T11:15:58.703Z,6.13
2023-02-28T11:16:58.530Z,6.04
2023-02-28T11:17:58.441Z,6.07
2023-02-28T11:18:58.351Z,6.03
2023-02-28T11:19:58.268Z,6.08
2023-02-28T11:20:58.185Z,6.21
2023-02-28T11:21:58.107Z,6.17
2023-02-28T11:22:58.019Z,6.29
2023-02-28T11:23:57.934Z,6.55
2023-02-28T11:24:57.853Z,6.86
2023-02-28T11:25:57.772Z,7.05
2023-02-28T11:26:57.725Z,7.13
2023-02-28T11:27:57.602Z,7.35
2023-02-28T11:28:57.537Z,7.72
2023-02-28T11:29:57.445Z,7.76
2023-02-28T11:30:57.412Z,7.64
2023-02-28T11:31:57.293Z,7.49
2023-02-28T11:32:57.243Z,7.17
2023-02-28T11:35:57.095Z,7.47
2023-02-28T11:37:57.074Z,6.91
2023-02-28T11:38:59.773Z,7.24
2023-02-28T11:40:56.821Z,7.21
2023-02-28T11:41:56.490Z,6.72
2023-02-28T11:42:56.953Z,6.54
2023-02-28T11:45:56.516Z,5.74
2023-02-28T11:46:56.105Z,5.41
2023-02-28T11:47:56.069Z,5.28
2023-02-28T11:48:55.893Z,5.17
2023-02-28T11:49:55.803Z,5.18
2023-02-28T11:50:55.727Z,5.65
2023-02-28T11:51:55.640Z,5.90
2023-02-28T11:52:55.558Z,5.83
2023-02-28T11:53:55.493Z,5.86
2023-02-28T11:54:55.396Z,6.42
2023-02-28T11:55:55.311Z,6.98
2023-02-28T11:56:55.292Z,7.37
2023-02-28T11:57:55.195Z,7.63
2023-02-28T11:58:55.086Z,8.03
2023-02-28T11:59:54.988Z,7.45
2023-02-28T12:00:54.911Z,7.56
2023-02-28T12:01:54.908Z,7.76
2023-02-28T12:02:54.945Z,7.41
2023-02-28T12:03:54.668Z,7.64
2023-02-28T12:04:54.690Z,7.78
2023-02-28T12:05:54.536Z,7.48
2023-02-28T12:06:54.434Z,7.75
2023-02-28T12:07:54.347Z,7.88
2023-02-28T12:08:54.270Z,8.29
2023-02-28T12:09:54.190Z,8.69
2023-02-28T12:17:54.478Z,8.88
2023-02-28T12:18:54.382Z,8.68
2023-02-28T12:19:54.305Z,8.98
2023-02-28T12:20:54.244Z,8.97
2023-02-28T12:21:54.148Z,8.69
2023-02-28T12:22:54.073Z,8.11
2023-02-28T12:23:53.997Z,6.91
2023-02-28T12:24:54.170Z,7.39
2023-02-28T12:25:53.844Z,7.70
2023-02-28T12:26:53.765Z,8.03
2023-02-28T12:27:53.685Z,8.68
2023-02-28T12:28:53.609Z,8.98
2023-02-28T12:29:53.780Z,8.85
2023-02-28T12:30:53.451Z,8.54
2023-02-28T12:31:56.436Z,8.03
2023-02-28T12:32:53.302Z,7.52
2023-02-28T12:33:53.246Z,7.17
2023-02-28T12:34:53.163Z,6.86
2023-02-28T12:35:53.133Z,6.98
2023-02-28T12:36:52.991Z,6.75
2023-02-28T12:37:52.936Z,7.27
2023-02-28T12:38:53.348Z,8.07
2023-02-28T12:39:52.756Z,8.36
2023-02-28T12:40:52.680Z,8.34
2023-02-28T12:41:53.413Z,8.39
2023-02-28T12:42:52.527Z,8.40
2023-02-28T12:43:52.451Z,8.85
2023-02-28T12:44:52.372Z,9.43
2023-02-28T12:45:52.394Z,9.79
2023-02-28T12:46:52.282Z,9.58
2023-02-28T12:47:52.170Z,9.83
2023-02-28T12:56:28.835Z,9.02
2023-02-28T12:57:27.110Z,9.42
2023-02-28T12:58:27.641Z,9.02
2023-02-28T13:00:14.445Z,9.43
2023-02-28T13:01:15.437Z,9.75
2023-02-28T13:02:14.327Z,9.92
2023-02-28T14:10:59.920Z,7.62
2023-02-28T14:12:00.843Z,7.49
2023-02-28T14:12:59.755Z,7.62
2023-02-28T14:13:59.921Z,7.75
2023-02-28T14:14:59.605Z,7.52
2023-02-28T14:15:59.563Z,7.42
2023-02-28T14:16:59.434Z,7.34
2023-02-28T14:17:59.356Z,7.63
2023-02-28T14:18:59.277Z,7.73
2023-02-28T14:19:59.201Z,7.73
2023-02-28T14:20:59.125Z,7.83
2023-02-28T14:21:59.041Z,7.86
2023-02-28T14:22:58.962Z,7.88
2023-02-28T14:23:58.883Z,8.03
2023-02-28T14:24:58.803Z,7.90
2023-02-28T14:25:58.729Z,8.14
2023-02-28T14:26:58.675Z,7.78
2023-02-28T14:27:58.568Z,7.93
2023-02-28T14:28:58.495Z,7.72
2023-02-28T14:29:58.414Z,7.72
2023-02-28T14:30:58.497Z,7.83
2023-02-28T14:31:58.290Z,7.97
2023-02-28T14:32:58.174Z,8.15
2023-02-28T14:33:58.099Z,7.88
2023-02-28T14:35:58.071Z,7.19
2023-02-28T14:36:57.860Z,7.29
2023-02-28T14:37:57.847Z,7.45
2023-02-28T14:38:57.701Z,7.19
2023-02-28T14:39:57.648Z,7.29
2023-02-28T14:40:57.544Z,7.45
2023-02-28T14:41:57.464Z,7.67
2023-02-28T14:42:57.416Z,7.97
2023-02-28T14:43:57.329Z,7.86
2023-02-28T14:44:57.229Z,7.75
2023-02-28T14:45:57.147Z,8.03
2023-02-28T14:46:59.693Z,7.78
2023-02-28T14:47:56.999Z,7.57
2023-02-28T14:48:56.915Z,7.38
2023-02-28T14:49:56.832Z,7.23
2023-02-28T14:50:56.755Z,6.94
2023-02-28T14:51:56.673Z,6.90
2023-02-28T14:52:56.594Z,6.78
2023-02-28T14:53:57.012Z,6.54
2023-02-28T14:54:56.439Z,6.33
2023-02-28T14:55:56.354Z,6.32
2023-02-28T14:56:57.699Z,6.32
2023-02-28T14:57:56.195Z,6.42
2023-02-28T14:58:56.134Z,6.47
2023-02-28T14:59:56.437Z,6.48
2023-02-28T15:00:55.965Z,6.39
2023-02-28T15:01:55.968Z,6.39
2023-02-28T15:02:55.795Z,6.41
2023-02-28T15:03:55.707Z,6.37
2023-02-28T15:04:55.689Z,6.24
2023-02-28T15:05:55.549Z,6.15
2023-02-28T15:06:55.664Z,6.07
2023-02-28T15:12:19.157Z,5.93
2023-02-28T15:13:19.074Z,5.89
2023-02-28T15:14:19.034Z,5.85
2023-02-28T15:15:19.113Z,5.86
2023-02-28T15:16:18.855Z,5.90
2023-02-28T15:29:53.399Z,5.95
2023-02-28T15:30:53.295Z,5.96
2023-02-28T15:31:58.082Z,6.06
2023-02-28T15:32:53.181Z,5.96
2023-02-28T15:33:53.040Z,6.03
2023-02-28T15:34:52.957Z,6.08
2023-02-28T15:35:52.889Z,6.04
2023-02-28T15:36:52.789Z,5.96
2023-02-28T15:37:52.822Z,6.04
2023-02-28T15:38:52.619Z,6.00
2023-02-28T15:39:52.794Z,6.10
2023-02-28T15:40:52.450Z,5.97
2023-02-28T15:41:52.365Z,5.99
2023-02-28T15:42:52.287Z,5.74
2023-02-28T15:43:52.203Z,5.86
2023-02-28T15:44:52.123Z,5.88
2023-02-28T15:45:52.070Z,5.88
2023-02-28T15:46:51.968Z,6.04
2023-02-28T15:47:52.687Z,5.93
2023-02-28T15:48:51.775Z,5.93
2023-02-28T15:49:51.692Z,6.00
2023-02-28T15:50:51.607Z,6.08
2023-02-28T15:51:51.526Z,6.06
2023-02-28T15:52:51.437Z,6.11
2023-02-28T15:53:51.352Z,6.11
2023-02-28T15:54:51.291Z,6.11
2023-02-28T15:55:51.185Z,6.08
2023-02-28T15:56:51.101Z,6.17
2023-02-28T15:57:51.019Z,6.30
2023-02-28T15:58:50.931Z,6.32
2023-02-28T15:59:50.849Z,6.32
2023-02-28T16:00:50.765Z,6.33
2023-02-28T16:01:50.776Z,6.36
2023-02-28T16:02:50.663Z,6.42
2023-02-28T16:03:50.525Z,6.34
2023-02-28T16:04:50.428Z,6.15
2023-02-28T16:05:50.340Z,6.21
2023-02-28T16:06:50.263Z,6.08
2023-02-28T16:07:50.181Z,6.10
2023-02-28T16:08:50.088Z,6.07
2023-02-28T16:09:50.008Z,6.06
2023-02-28T16:10:49.922Z,6.15
2023-02-28T16:11:49.842Z,6.10
2023-02-28T16:12:49.762Z,5.99
2023-02-28T16:13:49.676Z,6.04
2023-02-28T16:14:49.591Z,6.10
2023-02-28T16:15:49.502Z,5.86
2023-02-28T16:16:49.532Z,5.99
2023-02-28T16:17:49.351Z,5.97
2023-02-28T16:18:49.303Z,5.89
2023-02-28T16:19:49.169Z,5.90
2023-02-28T16:20:49.489Z,5.81
2023-02-28T16:21:48.995Z,5.80
2023-02-28T16:22:48.910Z,5.78
2023-02-28T16:23:48.838Z,5.81
2023-02-28T16:24:48.743Z,5.80
2023-02-28T16:25:48.658Z,5.85
2023-02-28T16:26:48.577Z,5.72
2023-02-28T16:27:50.229Z,5.67
2023-02-28T16:28:48.410Z,5.68
2023-02-28T16:29:48.323Z,5.67
2023-02-28T16:30:48.399Z,5.62
2023-02-28T16:31:48.249Z,5.74
2023-02-28T16:32:48.083Z,5.80
2023-02-28T16:33:48.006Z,5.74
2023-02-28T16:34:47.901Z,5.74
2023-02-28T16:35:47.814Z,5.72
2023-02-28T16:36:47.737Z,5.60
2023-02-28T16:37:47.756Z,5.60
2023-02-28T16:38:47.564Z,5.50
2023-02-28T16:39:47.479Z,5.35
2023-02-28T16:40:47.645Z,5.24
2023-02-28T16:41:47.407Z,5.31
2023-02-28T16:42:47.223Z,5.26
2023-02-28T16:43:47.142Z,5.23
2023-02-28T16:44:47.053Z,5.17
2023-02-28T16:45:46.998Z,5.14
2023-02-28T16:46:46.889Z,5.05
2023-02-28T16:47:46.804Z,4.85
2023-02-28T16:48:46.725Z,4.58
2023-02-28T16:49:46.646Z,4.52
2023-02-28T16:50:46.603Z,4.50
2023-02-28T16:51:46.460Z,4.47
2023-02-28T16:52:46.375Z,4.36
2023-02-28T16:53:46.290Z,4.28
2023-02-28T16:54:46.201Z,4.10
2023-02-28T16:55:46.128Z,4.29
2023-02-28T16:56:46.035Z,4.12
2023-02-28T16:57:45.948Z,4.16
2023-02-28T16:58:45.862Z,4.10
2023-02-28T16:59:45.776Z,4.26
2023-02-28T17:00:45.719Z,4.12
2023-02-28T17:01:45.684Z,4.08
2023-02-28T17:02:45.725Z,4.05
2023-02-28T17:03:45.500Z,3.93
2023-02-28T17:04:45.350Z,3.90
2023-02-28T17:05:45.332Z,3.92
2023-02-28T17:06:45.185Z,3.90